Have a Safe July 4th! 

Flight Track Log - Related Links

Times and Time Zones

All times are in EST time to prevent confusion due to time zone crossing. See the ASQ5685 flight status page for this flight to view local times or setup timezone preferences in your user account.

Time Position Orientation Groundspeed Altitude Reporting Facility
EST Latitude Longitude Course Direction KTS MPH feet Rate Location/Type
Sat 09:42:00 AM 33.6333 -84.4000 69° East 179 206 2,300  Level Atlanta TRACON
Sat 09:43:05 AM 33.6333 -84.3167 90° East 246 283 4,100 2,000 Climbing Atlanta TRACON
Sat 09:44:00 AM 33.8757 -84.1438 54° Northeast  Level Estimated
Sat 09:44:00 AM 33.6333 -84.2500 90° East 281 323 6,300  Level Atlanta TRACON
Sat 09:45:00 AM 33.9552 -84.0488 53° Northeast  Level Estimated
Sat 09:45:42 AM 33.6503 -84.0811 83° East 306 352 10,400  Level Atlanta Center
Sat 09:46:00 AM 33.9960 -83.9230 69° East  Level FlightAware Approximate
Sat 09:46:42 AM 33.7067 -84.0064 48° Northeast 318 366 11,600  Level Atlanta Center
Sat 09:47:00 AM 34.0367 -83.7971 69° East  Level FlightAware Approximate
Sat 09:47:42 AM 33.7794 -83.9114 47° Northeast 344 396 13,200  Level Atlanta Center
Sat 09:48:42 AM 33.8525 -83.8186 47° Northeast 367 422 15,000 1,700 Climbing Atlanta Center
Sat 09:49:42 AM 33.9233 -83.7258 47° Northeast 377 434 16,600 1,500 Climbing Atlanta Center
Sat 09:50:42 AM 33.9919 -83.6203 52° Northeast 386 444 18,000 1,000 Climbing Atlanta Center
Sat 09:51:42 AM 34.0603 -83.5097 53° Northeast 403 464 18,600 1,250 Climbing Atlanta Center
Sat 09:52:42 AM 34.1286 -83.4014 53° Northeast 409 471 20,500 1,200 Climbing Atlanta Center
Sat 09:53:42 AM 34.1739 -83.2731 67° East 404 465 21,000 500 Climbing Atlanta Center
Sat 09:54:42 AM 34.2125 -83.1169 73° East 434 499 21,500 800 Climbing Atlanta Center
Sat 09:55:42 AM 34.2950 -83.0028 49° Northeast 441 507 22,600 1,050 Climbing Atlanta Center
Sat 09:56:42 AM 34.3669 -82.8911 52° Northeast 434 499 23,600 950 Climbing Atlanta Center
Sat 09:57:42 AM 34.4558 -82.7917 43° Northeast 421 484 24,500 850 Climbing Atlanta Center
Sat 09:58:42 AM 34.5531 -82.7122 34° Northeast 420 483 25,300 750 Climbing Atlanta Center
Sat 09:59:42 AM 34.6331 -82.5997 49° Northeast 420 483 26,000 650 Climbing Atlanta Center
Sat 10:00:42 AM 34.7008 -82.4925 52° Northeast 425 489 26,600 600 Climbing Atlanta Center
Sat 10:01:42 AM 34.7742 -82.3672 55° Northeast 440 506 27,200 650 Climbing Atlanta Center
Sat 10:02:42 AM 34.8475 -82.2444 54° Northeast 447 514 27,900 700 Climbing Atlanta Center
Sat 10:03:42 AM 34.9289 -82.1083 54° Northeast 454 522 28,600 550 Climbing Atlanta Center
Sat 10:04:42 AM 35.0042 -81.9847 53° Northeast 454 522 29,000 200 Climbing Atlanta Center
Sat 10:05:42 AM 35.0769 -81.8511 56° Northeast 459 528 29,000  Level Atlanta Center
Sat 10:06:42 AM 35.1497 -81.7144 57° Northeast 471 542 29,000  Level Atlanta Center
Sat 10:07:42 AM 35.2200 -81.5778 58° Northeast 476 548 29,000  Level Atlanta Center
Sat 10:08:42 AM 35.2942 -81.4356 57° Northeast 484 557 29,000  Level Atlanta Center
Sat 10:09:42 AM 35.3664 -81.2958 58° Northeast 489 563 29,000  Level Atlanta Center
Sat 10:10:42 AM 35.4403 -81.1506 58° Northeast 489 563 29,000  Level Atlanta Center
Sat 10:11:42 AM 35.5081 -81.0206 57° Northeast 489 563 29,000  Level Atlanta Center
Sat 10:12:42 AM 35.5817 -80.8825 57° Northeast 489 563 29,000  Level Atlanta Center
Sat 10:14:43 AM 35.7300 -80.5944 58° Northeast 489 563 29,000  Level Washington Center
Sat 10:15:44 AM 35.8050 -80.4506 57° Northeast 489 563 29,000  Level Washington Center
Sat 10:16:42 AM 35.8794 -80.3064 57° Northeast 489 563 29,000  Level Washington Center
Sat 10:17:42 AM 35.9519 -80.1619 58° Northeast 494 568 29,000  Level Washington Center
Sat 10:18:43 AM 36.0328 -80.0072 57° Northeast 482 555 29,000  Level Washington Center
Sat 10:19:44 AM 36.1111 -79.8650 56° Northeast 493 567 29,000  Level Washington Center
Sat 10:20:44 AM 36.1892 -79.7228 56° Northeast 499 574 29,000  Level Washington Center
Sat 10:21:42 AM 36.2689 -79.5825 55° Northeast 499 574 29,000  Level Washington Center
Sat 10:22:43 AM 36.3331 -79.4725 54° Northeast 499 574 29,000 -150 Level Washington Center
Sat 10:23:42 AM 36.4217 -79.3117 56° Northeast 508 585 28,700 -706 Descending Washington Center
Sat 10:24:42 AM 36.5011 -79.1681 55° Northeast 508 585 27,600 -1,041 Descending Washington Center
Sat 10:25:43 AM 36.5803 -79.0294 55° Northeast 496 571 26,600 -984 Descending Washington Center
Sat 10:26:44 AM 36.6572 -78.8956 54° Northeast 485 558 25,600 -793 Descending Washington Center
Sat 10:27:44 AM 36.7364 -78.7436 57° Northeast 480 552 25,000 -308 Descending Washington Center
Sat 10:28:41 AM 36.8108 -78.6064 56° Northeast 473 544 25,000 -254 Level Washington Center
Sat 10:29:42 AM 36.8950 -78.4903 48° Northeast 467 537 24,500 -738 Descending Washington Center
Sat 10:30:43 AM 36.9978 -78.3850 39° Northeast 461 531 23,500 -793 Descending Washington Center
Sat 10:31:43 AM 37.0917 -78.2894 39° Northeast 472 543 22,900 -744 Descending Washington Center
Sat 10:32:44 AM 37.1942 -78.1836 39° Northeast 478 550 22,000 -446 Descending Washington Center
Sat 10:33:44 AM 37.2986 -78.0747 40° Northeast 460 529 22,000  Level Washington Center
Sat 10:34:42 AM 37.3947 -77.9733 40° Northeast 455 524 22,000  Level Washington Center
Sat 10:35:42 AM 37.4906 -77.8717 40° Northeast 455 524 22,000 -347 Level Washington Center
Sat 10:36:43 AM 37.5836 -77.7958 33° Northeast 448 516 21,300 -1,328 Descending Washington Center
Sat 10:37:44 AM 37.6975 -77.7283 25° Northeast 443 510 19,300 -1,866 Descending Washington Center
Sat 10:38:42 AM 37.8028 -77.6681 24° Northeast 429 494 17,600 -2,017 Descending Washington Center
Sat 10:39:43 AM 37.9039 -77.6103 24° Northeast 409 471 15,300 -2,213 Descending Washington Center
Sat 10:40:44 AM 38.0008 -77.5522 25° Northeast 394 453 13,100 -2,168 Descending Washington Center
Sat 10:41:42 AM 38.0933 -77.5019 23° Northeast 371 427 11,000 -1,563 Descending Washington Center
Sat 10:42:43 AM 38.1714 -77.4564 25° Northeast 336 387 10,000 -496 Descending Washington Center
Sat 10:43:43 AM 38.2450 -77.4106 26° Northeast 302 348 10,000 -545 Level Washington Center
Sat 10:44:44 AM 38.3164 -77.3675 25° Northeast 288 331 8,900 -1,311 Descending Washington Center
Sat 10:45:42 AM 38.3914 -77.3744 356° North 258 297 7,400 -1,412 Descending Washington Center
Sat 10:46:43 AM 38.4619 -77.4081 340° North 251 289 6,100 -1,377 Descending Washington Center
Sat 10:47:44 AM 38.5303 -77.4389 341° North 251 289 4,600 -1,041 Descending Washington Center
Sat 10:48:44 AM 38.6031 -77.4433 357° North 258 297 4,000 -340 Descending Washington Center
Sat 10:49:30 AM 38.6667 -77.4333 North 262 302 4,000  Level Potomac TRACON
Sat 10:50:37 AM 38.7500 -77.4333 360° North 238 274 4,000 -446 Level Potomac TRACON
Sat 10:51:31 AM 38.8000 -77.4333 360° North 208 239 3,100 -1,056 Descending Potomac TRACON
Sat 10:52:25 AM 38.8500 -77.4333 360° North 180 207 2,100 -1,000 Descending Potomac TRACON
Sat 10:53:31 AM 38.9000 -77.4333 360° North 142 163 1,100 -909 Descending Potomac TRACON

Login

Don't have an account? Register now (free) for customized features, flight alerts, and more!